sensor_id;sensor_type;location;lat;lon;timestamp;P1;durP1;ratioP1;P2;durP2;ratioP2
59756;SDS011;45631;51.962;5.974;2023-02-26T00:01:16;9.65;;;2.38;;
59756;SDS011;45631;51.962;5.974;2023-02-26T00:03:48;8.73;;;2.78;;
59756;SDS011;45631;51.962;5.974;2023-02-26T00:06:20;10.32;;;2.13;;
59756;SDS011;45631;51.962;5.974;2023-02-26T00:08:50;6.18;;;2.00;;
59756;SDS011;45631;51.962;5.974;2023-02-26T00:11:19;8.10;;;2.58;;
59756;SDS011;45631;51.962;5.974;2023-02-26T00:13:48;8.38;;;2.15;;
59756;SDS011;45631;51.962;5.974;2023-02-26T00:16:20;10.55;;;2.55;;
59756;SDS011;45631;51.962;5.974;2023-02-26T00:18:55;7.43;;;2.15;;
59756;SDS011;45631;51.962;5.974;2023-02-26T00:21:24;7.53;;;2.22;;
59756;SDS011;45631;51.962;5.974;2023-02-26T00:23:53;7.15;;;2.20;;
59756;SDS011;45631;51.962;5.974;2023-02-26T00:26:22;8.65;;;2.00;;
59756;SDS011;45631;51.962;5.974;2023-02-26T00:28:53;9.18;;;2.50;;
59756;SDS011;45631;51.962;5.974;2023-02-26T00:31:22;6.45;;;2.22;;
59756;SDS011;45631;51.962;5.974;2023-02-26T00:33:52;5.85;;;1.92;;
59756;SDS011;45631;51.962;5.974;2023-02-26T00:36:24;7.63;;;2.33;;
59756;SDS011;45631;51.962;5.974;2023-02-26T00:39:05;7.88;;;2.10;;
59756;SDS011;45631;51.962;5.974;2023-02-26T00:41:42;7.85;;;2.10;;
59756;SDS011;45631;51.962;5.974;2023-02-26T00:44:11;10.85;;;2.10;;
59756;SDS011;45631;51.962;5.974;2023-02-26T00:46:41;9.27;;;2.75;;
59756;SDS011;45631;51.962;5.974;2023-02-26T00:49:20;7.97;;;2.28;;
59756;SDS011;45631;51.962;5.974;2023-02-26T00:51:55;6.55;;;2.35;;
59756;SDS011;45631;51.962;5.974;2023-02-26T00:54:25;7.70;;;2.22;;
59756;SDS011;45631;51.962;5.974;2023-02-26T00:56:55;5.25;;;2.90;;
59756;SDS011;45631;51.962;5.974;2023-02-26T00:59:25;10.23;;;2.33;;
59756;SDS011;45631;51.962;5.974;2023-02-26T01:01:53;10.57;;;2.03;;
59756;SDS011;45631;51.962;5.974;2023-02-26T01:04:23;13.23;;;2.58;;
59756;SDS011;45631;51.962;5.974;2023-02-26T01:06:55;5.90;;;1.90;;
59756;SDS011;45631;51.962;5.974;2023-02-26T01:09:25;11.93;;;2.00;;
59756;SDS011;45631;51.962;5.974;2023-02-26T01:11:55;6.55;;;1.90;;
59756;SDS011;45631;51.962;5.974;2023-02-26T01:14:27;9.23;;;2.10;;
59756;SDS011;45631;51.962;5.974;2023-02-26T01:19:36;9.00;;;2.53;;
59756;SDS011;45631;51.962;5.974;2023-02-26T01:22:11;6.55;;;2.03;;
59756;SDS011;45631;51.962;5.974;2023-02-26T01:24:45;11.65;;;2.30;;
59756;SDS011;45631;51.962;5.974;2023-02-26T01:27:18;6.93;;;1.70;;
59756;SDS011;45631;51.962;5.974;2023-02-26T01:29:47;6.55;;;1.67;;
59756;SDS011;45631;51.962;5.974;2023-02-26T01:32:17;6.25;;;2.00;;
59756;SDS011;45631;51.962;5.974;2023-02-26T01:34:51;7.97;;;1.58;;
59756;SDS011;45631;51.962;5.974;2023-02-26T01:37:25;7.65;;;1.50;;
59756;SDS011;45631;51.962;5.974;2023-02-26T01:40:16;8.05;;;1.67;;
59756;SDS011;45631;51.962;5.974;2023-02-26T01:43:02;6.60;;;1.60;;
59756;SDS011;45631;51.962;5.974;2023-02-26T01:45:38;4.55;;;1.73;;
59756;SDS011;45631;51.962;5.974;2023-02-26T01:48:24;3.95;;;1.30;;
59756;SDS011;45631;51.962;5.974;2023-02-26T01:51:04;5.88;;;1.50;;
59756;SDS011;45631;51.962;5.974;2023-02-26T01:53:32;5.32;;;1.75;;
59756;SDS011;45631;51.962;5.974;2023-02-26T01:56:02;8.05;;;1.83;;
59756;SDS011;45631;51.962;5.974;2023-02-26T01:58:36;4.75;;;1.58;;
59756;SDS011;45631;51.962;5.974;2023-02-26T02:01:05;6.20;;;1.90;;
59756;SDS011;45631;51.962;5.974;2023-02-26T02:03:37;5.80;;;1.70;;
59756;SDS011;45631;51.962;5.974;2023-02-26T02:06:10;7.95;;;2.13;;
59756;SDS011;45631;51.962;5.974;2023-02-26T02:08:44;8.25;;;1.85;;
59756;SDS011;45631;51.962;5.974;2023-02-26T02:11:15;9.20;;;1.90;;
59756;SDS011;45631;51.962;5.974;2023-02-26T02:13:47;5.80;;;1.80;;
59756;SDS011;45631;51.962;5.974;2023-02-26T02:16:30;10.23;;;2.28;;
59756;SDS011;45631;51.962;5.974;2023-02-26T02:19:10;6.85;;;1.92;;
59756;SDS011;45631;51.962;5.974;2023-02-26T02:22:02;10.82;;;1.85;;
59756;SDS011;45631;51.962;5.974;2023-02-26T02:24:50;7.68;;;1.80;;
59756;SDS011;45631;51.962;5.974;2023-02-26T02:27:34;6.47;;;1.65;;
59756;SDS011;45631;51.962;5.974;2023-02-26T02:30:13;5.32;;;1.80;;
59756;SDS011;45631;51.962;5.974;2023-02-26T02:32:54;7.03;;;2.13;;
59756;SDS011;45631;51.962;5.974;2023-02-26T02:35:28;7.15;;;2.20;;
59756;SDS011;45631;51.962;5.974;2023-02-26T02:37:59;5.20;;;1.60;;
59756;SDS011;45631;51.962;5.974;2023-02-26T02:40:36;9.13;;;1.98;;
59756;SDS011;45631;51.962;5.974;2023-02-26T02:43:12;11.25;;;1.95;;
59756;SDS011;45631;51.962;5.974;2023-02-26T02:45:42;8.30;;;1.77;;
59756;SDS011;45631;51.962;5.974;2023-02-26T02:48:17;6.15;;;2.30;;
59756;SDS011;45631;51.962;5.974;2023-02-26T02:50:51;9.57;;;1.80;;
59756;SDS011;45631;51.962;5.974;2023-02-26T02:53:25;7.60;;;1.58;;
59756;SDS011;45631;51.962;5.974;2023-02-26T02:56:00;6.88;;;1.95;;
59756;SDS011;45631;51.962;5.974;2023-02-26T02:58:33;9.05;;;1.65;;
59756;SDS011;45631;51.962;5.974;2023-02-26T03:01:07;7.38;;;1.90;;
59756;SDS011;45631;51.962;5.974;2023-02-26T03:03:40;6.93;;;1.58;;
59756;SDS011;45631;51.962;5.974;2023-02-26T03:06:13;6.30;;;1.70;;
59756;SDS011;45631;51.962;5.974;2023-02-26T03:08:43;5.10;;;1.48;;
59756;SDS011;45631;51.962;5.974;2023-02-26T03:11:14;7.03;;;1.60;;
59756;SDS011;45631;51.962;5.974;2023-02-26T03:13:43;7.93;;;1.58;;
59756;SDS011;45631;51.962;5.974;2023-02-26T03:16:16;6.80;;;1.95;;
59756;SDS011;45631;51.962;5.974;2023-02-26T03:18:57;8.07;;;1.52;;
59756;SDS011;45631;51.962;5.974;2023-02-26T03:21:33;4.57;;;1.92;;
59756;SDS011;45631;51.962;5.974;2023-02-26T03:24:12;5.90;;;1.45;;
59756;SDS011;45631;51.962;5.974;2023-02-26T03:26:45;8.23;;;1.88;;
59756;SDS011;45631;51.962;5.974;2023-02-26T03:29:18;5.38;;;1.55;;
59756;SDS011;45631;51.962;5.974;2023-02-26T03:31:55;7.50;;;1.70;;
59756;SDS011;45631;51.962;5.974;2023-02-26T03:37:00;4.47;;;1.60;;
59756;SDS011;45631;51.962;5.974;2023-02-26T03:39:33;6.25;;;2.30;;
59756;SDS011;45631;51.962;5.974;2023-02-26T03:42:07;4.15;;;1.33;;
59756;SDS011;45631;51.962;5.974;2023-02-26T03:44:39;5.63;;;1.17;;
59756;SDS011;45631;51.962;5.974;2023-02-26T03:47:12;2.95;;;1.20;;
59756;SDS011;45631;51.962;5.974;2023-02-26T03:49:45;5.70;;;1.30;;
59756;SDS011;45631;51.962;5.974;2023-02-26T03:52:17;9.23;;;1.42;;
59756;SDS011;45631;51.962;5.974;2023-02-26T03:54:50;4.63;;;1.30;;
59756;SDS011;45631;51.962;5.974;2023-02-26T03:57:23;7.32;;;1.55;;
59756;SDS011;45631;51.962;5.974;2023-02-26T03:59:51;6.43;;;1.45;;
59756;SDS011;45631;51.962;5.974;2023-02-26T04:02:21;10.30;;;1.77;;
59756;SDS011;45631;51.962;5.974;2023-02-26T04:04:58;7.40;;;1.88;;
59756;SDS011;45631;51.962;5.974;2023-02-26T04:07:29;5.70;;;1.60;;
59756;SDS011;45631;51.962;5.974;2023-02-26T04:09:58;8.55;;;1.30;;
59756;SDS011;45631;51.962;5.974;2023-02-26T04:12:26;7.35;;;1.40;;
59756;SDS011;45631;51.962;5.974;2023-02-26T04:14:55;6.03;;;2.28;;
59756;SDS011;45631;51.962;5.974;2023-02-26T04:17:24;10.25;;;1.85;;
59756;SDS011;45631;51.962;5.974;2023-02-26T04:19:54;7.28;;;1.40;;
59756;SDS011;45631;51.962;5.974;2023-02-26T04:22:23;4.72;;;1.00;;
59756;SDS011;45631;51.962;5.974;2023-02-26T04:24:54;3.92;;;1.20;;
59756;SDS011;45631;51.962;5.974;2023-02-26T04:27:22;4.97;;;1.10;;
59756;SDS011;45631;51.962;5.974;2023-02-26T04:29:51;8.40;;;1.25;;
59756;SDS011;45631;51.962;5.974;2023-02-26T04:32:19;6.90;;;1.27;;
59756;SDS011;45631;51.962;5.974;2023-02-26T04:34:49;7.43;;;1.20;;
59756;SDS011;45631;51.962;5.974;2023-02-26T04:37:17;7.35;;;2.10;;
59756;SDS011;45631;51.962;5.974;2023-02-26T04:39:50;5.55;;;1.10;;
59756;SDS011;45631;51.962;5.974;2023-02-26T04:42:18;5.10;;;1.20;;
59756;SDS011;45631;51.962;5.974;2023-02-26T04:44:46;2.60;;;1.13;;
59756;SDS011;45631;51.962;5.974;2023-02-26T04:47:14;4.22;;;1.30;;
59756;SDS011;45631;51.962;5.974;2023-02-26T04:49:42;5.43;;;1.35;;
59756;SDS011;45631;51.962;5.974;2023-02-26T04:52:13;7.22;;;1.38;;
59756;SDS011;45631;51.962;5.974;2023-02-26T04:54:41;5.00;;;0.95;;
59756;SDS011;45631;51.962;5.974;2023-02-26T04:57:13;3.63;;;0.98;;
59756;SDS011;45631;51.962;5.974;2023-02-26T04:59:41;5.65;;;1.77;;
59756;SDS011;45631;51.962;5.974;2023-02-26T05:02:12;7.90;;;1.52;;
59756;SDS011;45631;51.962;5.974;2023-02-26T05:04:40;6.07;;;1.33;;
59756;SDS011;45631;51.962;5.974;2023-02-26T05:07:08;4.38;;;1.75;;
59756;SDS011;45631;51.962;5.974;2023-02-26T05:09:37;4.70;;;1.65;;
59756;SDS011;45631;51.962;5.974;2023-02-26T05:12:05;4.50;;;1.15;;
59756;SDS011;45631;51.962;5.974;2023-02-26T05:14:34;3.53;;;0.90;;
59756;SDS011;45631;51.962;5.974;2023-02-26T05:17:04;4.67;;;0.90;;
59756;SDS011;45631;51.962;5.974;2023-02-26T05:19:33;3.65;;;1.10;;
59756;SDS011;45631;51.962;5.974;2023-02-26T05:22:03;7.43;;;1.23;;
59756;SDS011;45631;51.962;5.974;2023-02-26T05:24:31;4.72;;;1.20;;
59756;SDS011;45631;51.962;5.974;2023-02-26T05:27:00;6.65;;;1.00;;
59756;SDS011;45631;51.962;5.974;2023-02-26T05:29:28;3.25;;;0.90;;
59756;SDS011;45631;51.962;5.974;2023-02-26T05:31:58;4.22;;;1.00;;
59756;SDS011;45631;51.962;5.974;2023-02-26T05:34:27;5.40;;;0.95;;
59756;SDS011;45631;51.962;5.974;2023-02-26T05:36:58;5.82;;;1.08;;
59756;SDS011;45631;51.962;5.974;2023-02-26T05:39:26;2.95;;;1.00;;
59756;SDS011;45631;51.962;5.974;2023-02-26T05:41:54;4.63;;;0.90;;
59756;SDS011;45631;51.962;5.974;2023-02-26T05:44:22;3.47;;;0.93;;
59756;SDS011;45631;51.962;5.974;2023-02-26T05:46:50;3.88;;;1.00;;
59756;SDS011;45631;51.962;5.974;2023-02-26T05:49:20;7.05;;;1.15;;
59756;SDS011;45631;51.962;5.974;2023-02-26T05:51:48;6.00;;;1.35;;
59756;SDS011;45631;51.962;5.974;2023-02-26T05:54:16;3.38;;;1.05;;
59756;SDS011;45631;51.962;5.974;2023-02-26T05:56:44;7.30;;;1.17;;
59756;SDS011;45631;51.962;5.974;2023-02-26T05:59:12;5.72;;;1.67;;
59756;SDS011;45631;51.962;5.974;2023-02-26T06:01:40;4.05;;;1.13;;
59756;SDS011;45631;51.962;5.974;2023-02-26T06:04:09;4.90;;;0.95;;
59756;SDS011;45631;51.962;5.974;2023-02-26T06:06:38;3.65;;;0.90;;
59756;SDS011;45631;51.962;5.974;2023-02-26T06:09:06;4.18;;;1.33;;
59756;SDS011;45631;51.962;5.974;2023-02-26T06:11:34;4.18;;;1.20;;
59756;SDS011;45631;51.962;5.974;2023-02-26T06:14:05;4.32;;;1.00;;
59756;SDS011;45631;51.962;5.974;2023-02-26T06:16:33;5.95;;;1.20;;
59756;SDS011;45631;51.962;5.974;2023-02-26T06:19:01;5.55;;;1.20;;
59756;SDS011;45631;51.962;5.974;2023-02-26T06:21:29;6.32;;;1.35;;
59756;SDS011;45631;51.962;5.974;2023-02-26T06:23:59;2.88;;;0.90;;
59756;SDS011;45631;51.962;5.974;2023-02-26T06:26:27;3.75;;;1.30;;
59756;SDS011;45631;51.962;5.974;2023-02-26T06:28:55;6.53;;;1.08;;
59756;SDS011;45631;51.962;5.974;2023-02-26T06:31:23;7.40;;;1.15;;
59756;SDS011;45631;51.962;5.974;2023-02-26T06:33:51;2.50;;;0.82;;
59756;SDS011;45631;51.962;5.974;2023-02-26T06:36:19;5.65;;;1.30;;
59756;SDS011;45631;51.962;5.974;2023-02-26T06:38:47;2.78;;;1.17;;
59756;SDS011;45631;51.962;5.974;2023-02-26T06:41:17;5.40;;;1.45;;
59756;SDS011;45631;51.962;5.974;2023-02-26T06:46:16;5.57;;;1.08;;
59756;SDS011;45631;51.962;5.974;2023-02-26T06:48:44;4.95;;;1.15;;
59756;SDS011;45631;51.962;5.974;2023-02-26T06:51:12;4.63;;;1.20;;
59756;SDS011;45631;51.962;5.974;2023-02-26T06:53:40;3.50;;;1.10;;
59756;SDS011;45631;51.962;5.974;2023-02-26T06:56:08;3.10;;;1.27;;
59756;SDS011;45631;51.962;5.974;2023-02-26T06:58:38;6.25;;;1.10;;
59756;SDS011;45631;51.962;5.974;2023-02-26T07:01:06;3.00;;;1.02;;
59756;SDS011;45631;51.962;5.974;2023-02-26T07:03:34;2.17;;;0.90;;
59756;SDS011;45631;51.962;5.974;2023-02-26T07:06:03;3.42;;;0.95;;
59756;SDS011;45631;51.962;5.974;2023-02-26T07:08:52;5.88;;;0.95;;
59756;SDS011;45631;51.962;5.974;2023-02-26T07:11:20;6.15;;;1.17;;
59756;SDS011;45631;51.962;5.974;2023-02-26T07:13:50;3.63;;;1.20;;
59756;SDS011;45631;51.962;5.974;2023-02-26T07:16:18;3.05;;;0.90;;
59756;SDS011;45631;51.962;5.974;2023-02-26T07:18:46;5.57;;;0.98;;
59756;SDS011;45631;51.962;5.974;2023-02-26T07:21:14;3.40;;;1.10;;
59756;SDS011;45631;51.962;5.974;2023-02-26T07:23:42;4.60;;;1.02;;
59756;SDS011;45631;51.962;5.974;2023-02-26T07:26:10;2.90;;;0.80;;
59756;SDS011;45631;51.962;5.974;2023-02-26T07:28:38;5.70;;;1.05;;
59756;SDS011;45631;51.962;5.974;2023-02-26T07:31:08;4.68;;;1.10;;
59756;SDS011;45631;51.962;5.974;2023-02-26T07:33:36;6.40;;;1.05;;
59756;SDS011;45631;51.962;5.974;2023-02-26T07:36:05;2.45;;;0.90;;
59756;SDS011;45631;51.962;5.974;2023-02-26T07:38:33;6.13;;;1.33;;
59756;SDS011;45631;51.962;5.974;2023-02-26T07:41:02;6.95;;;1.00;;
59756;SDS011;45631;51.962;5.974;2023-02-26T07:43:30;3.85;;;0.93;;
59756;SDS011;45631;51.962;5.974;2023-02-26T07:45:58;5.55;;;1.13;;
59756;SDS011;45631;51.962;5.974;2023-02-26T07:48:27;4.57;;;1.02;;
59756;SDS011;45631;51.962;5.974;2023-02-26T07:50:56;3.05;;;0.88;;
59756;SDS011;45631;51.962;5.974;2023-02-26T07:53:24;6.32;;;1.25;;
59756;SDS011;45631;51.962;5.974;2023-02-26T07:55:55;7.60;;;1.17;;
59756;SDS011;45631;51.962;5.974;2023-02-26T07:58:23;5.30;;;0.93;;
59756;SDS011;45631;51.962;5.974;2023-02-26T08:00:51;4.88;;;1.05;;
59756;SDS011;45631;51.962;5.974;2023-02-26T08:03:19;5.38;;;1.23;;
59756;SDS011;45631;51.962;5.974;2023-02-26T08:05:49;5.63;;;1.10;;
59756;SDS011;45631;51.962;5.974;2023-02-26T08:08:17;4.03;;;0.90;;
59756;SDS011;45631;51.962;5.974;2023-02-26T08:10:45;5.18;;;1.00;;
59756;SDS011;45631;51.962;5.974;2023-02-26T08:13:14;5.45;;;0.70;;
59756;SDS011;45631;51.962;5.974;2023-02-26T08:15:42;6.25;;;0.90;;
59756;SDS011;45631;51.962;5.974;2023-02-26T08:18:13;4.78;;;1.58;;
59756;SDS011;45631;51.962;5.974;2023-02-26T08:20:41;2.28;;;1.10;;
59756;SDS011;45631;51.962;5.974;2023-02-26T08:23:11;5.70;;;0.88;;
59756;SDS011;45631;51.962;5.974;2023-02-26T08:25:39;6.38;;;0.88;;
59756;SDS011;45631;51.962;5.974;2023-02-26T08:28:10;4.13;;;1.00;;
59756;SDS011;45631;51.962;5.974;2023-02-26T08:30:38;6.47;;;1.08;;
59756;SDS011;45631;51.962;5.974;2023-02-26T08:33:06;4.88;;;1.20;;
59756;SDS011;45631;51.962;5.974;2023-02-26T08:35:34;5.05;;;1.58;;
59756;SDS011;45631;51.962;5.974;2023-02-26T08:38:02;6.90;;;1.10;;
59756;SDS011;45631;51.962;5.974;2023-02-26T08:40:32;6.60;;;1.20;;
59756;SDS011;45631;51.962;5.974;2023-02-26T08:43:00;8.98;;;1.20;;
59756;SDS011;45631;51.962;5.974;2023-02-26T08:45:29;4.43;;;0.77;;
59756;SDS011;45631;51.962;5.974;2023-02-26T08:47:57;4.97;;;1.00;;
59756;SDS011;45631;51.962;5.974;2023-02-26T08:50:26;5.32;;;1.20;;
59756;SDS011;45631;51.962;5.974;2023-02-26T08:52:54;4.22;;;1.00;;
59756;SDS011;45631;51.962;5.974;2023-02-26T08:55:22;4.28;;;0.98;;
59756;SDS011;45631;51.962;5.974;2023-02-26T08:57:52;3.55;;;0.95;;
59756;SDS011;45631;51.962;5.974;2023-02-26T09:00:20;6.22;;;1.40;;
59756;SDS011;45631;51.962;5.974;2023-02-26T09:02:49;2.85;;;0.80;;
59756;SDS011;45631;51.962;5.974;2023-02-26T09:05:17;5.07;;;1.05;;
59756;SDS011;45631;51.962;5.974;2023-02-26T09:07:45;5.13;;;0.90;;
59756;SDS011;45631;51.962;5.974;2023-02-26T09:10:14;3.53;;;1.05;;
59756;SDS011;45631;51.962;5.974;2023-02-26T09:12:45;4.03;;;0.70;;
59756;SDS011;45631;51.962;5.974;2023-02-26T09:15:15;3.00;;;1.10;;
59756;SDS011;45631;51.962;5.974;2023-02-26T09:17:43;4.07;;;0.90;;
59756;SDS011;45631;51.962;5.974;2023-02-26T09:20:12;6.07;;;1.30;;
59756;SDS011;45631;51.962;5.974;2023-02-26T09:22:41;2.70;;;0.90;;
59756;SDS011;45631;51.962;5.974;2023-02-26T09:25:12;4.50;;;2.35;;
59756;SDS011;45631;51.962;5.974;2023-02-26T09:27:41;2.38;;;0.55;;
59756;SDS011;45631;51.962;5.974;2023-02-26T09:30:10;4.03;;;0.80;;
59756;SDS011;45631;51.962;5.974;2023-02-26T09:32:40;5.38;;;0.98;;
59756;SDS011;45631;51.962;5.974;2023-02-26T09:35:08;3.80;;;1.05;;
59756;SDS011;45631;51.962;5.974;2023-02-26T09:37:39;2.88;;;0.80;;
59756;SDS011;45631;51.962;5.974;2023-02-26T09:40:09;3.92;;;1.05;;
59756;SDS011;45631;51.962;5.974;2023-02-26T09:42:51;4.47;;;1.05;;
59756;SDS011;45631;51.962;5.974;2023-02-26T09:45:30;5.30;;;1.20;;
59756;SDS011;45631;51.962;5.974;2023-02-26T09:48:05;2.13;;;0.90;;
59756;SDS011;45631;51.962;5.974;2023-02-26T09:50:37;5.15;;;1.00;;
59756;SDS011;45631;51.962;5.974;2023-02-26T09:53:09;4.43;;;0.93;;
59756;SDS011;45631;51.962;5.974;2023-02-26T09:55:44;5.43;;;1.20;;
59756;SDS011;45631;51.962;5.974;2023-02-26T09:58:14;6.25;;;1.40;;
59756;SDS011;45631;51.962;5.974;2023-02-26T10:00:50;3.10;;;0.93;;
59756;SDS011;45631;51.962;5.974;2023-02-26T10:03:29;3.03;;;0.85;;
59756;SDS011;45631;51.962;5.974;2023-02-26T10:06:08;8.07;;;1.20;;
59756;SDS011;45631;51.962;5.974;2023-02-26T10:08:47;5.05;;;1.17;;
59756;SDS011;45631;51.962;5.974;2023-02-26T10:11:28;5.65;;;1.10;;
59756;SDS011;45631;51.962;5.974;2023-02-26T10:14:03;3.05;;;0.90;;
59756;SDS011;45631;51.962;5.974;2023-02-26T10:16:39;3.47;;;1.17;;
59756;SDS011;45631;51.962;5.974;2023-02-26T10:19:17;3.50;;;0.80;;
59756;SDS011;45631;51.962;5.974;2023-02-26T10:21:50;4.60;;;1.00;;
59756;SDS011;45631;51.962;5.974;2023-02-26T10:24:21;4.28;;;0.88;;
59756;SDS011;45631;51.962;5.974;2023-02-26T10:26:57;3.80;;;0.88;;
59756;SDS011;45631;51.962;5.974;2023-02-26T10:29:31;2.35;;;0.68;;
59756;SDS011;45631;51.962;5.974;2023-02-26T10:32:11;4.80;;;0.82;;
59756;SDS011;45631;51.962;5.974;2023-02-26T10:34:51;2.30;;;0.70;;
59756;SDS011;45631;51.962;5.974;2023-02-26T10:37:35;5.03;;;0.90;;
59756;SDS011;45631;51.962;5.974;2023-02-26T10:40:15;2.92;;;0.70;;
59756;SDS011;45631;51.962;5.974;2023-02-26T10:42:46;3.30;;;0.68;;
59756;SDS011;45631;51.962;5.974;2023-02-26T10:45:26;3.92;;;0.75;;
59756;SDS011;45631;51.962;5.974;2023-02-26T10:48:05;2.08;;;0.90;;
59756;SDS011;45631;51.962;5.974;2023-02-26T10:50:43;2.95;;;0.90;;
59756;SDS011;45631;51.962;5.974;2023-02-26T10:53:15;1.67;;;0.70;;
59756;SDS011;45631;51.962;5.974;2023-02-26T10:55:43;3.50;;;0.90;;
59756;SDS011;45631;51.962;5.974;2023-02-26T10:58:15;4.90;;;0.80;;
59756;SDS011;45631;51.962;5.974;2023-02-26T11:00:46;4.22;;;0.80;;
59756;SDS011;45631;51.962;5.974;2023-02-26T11:03:16;1.42;;;0.60;;
59756;SDS011;45631;51.962;5.974;2023-02-26T11:05:48;3.95;;;0.70;;
59756;SDS011;45631;51.962;5.974;2023-02-26T11:08:19;2.95;;;0.70;;
59756;SDS011;45631;51.962;5.974;2023-02-26T11:10:53;2.67;;;0.85;;
59756;SDS011;45631;51.962;5.974;2023-02-26T11:13:23;1.95;;;0.80;;
59756;SDS011;45631;51.962;5.974;2023-02-26T11:15:56;2.88;;;0.95;;
59756;SDS011;45631;51.962;5.974;2023-02-26T11:18:29;2.63;;;0.85;;
59756;SDS011;45631;51.962;5.974;2023-02-26T11:21:00;2.40;;;0.80;;
59756;SDS011;45631;51.962;5.974;2023-02-26T11:23:32;3.03;;;0.82;;
59756;SDS011;45631;51.962;5.974;2023-02-26T11:26:02;3.58;;;0.85;;
59756;SDS011;45631;51.962;5.974;2023-02-26T11:28:34;2.80;;;0.60;;
59756;SDS011;45631;51.962;5.974;2023-02-26T11:31:04;2.13;;;0.70;;
59756;SDS011;45631;51.962;5.974;2023-02-26T11:33:35;2.30;;;0.80;;
59756;SDS011;45631;51.962;5.974;2023-02-26T11:36:08;1.50;;;0.70;;
59756;SDS011;45631;51.962;5.974;2023-02-26T11:38:39;4.30;;;0.90;;
59756;SDS011;45631;51.962;5.974;2023-02-26T11:41:11;2.33;;;0.75;;
59756;SDS011;45631;51.962;5.974;2023-02-26T11:43:41;2.33;;;0.80;;
59756;SDS011;45631;51.962;5.974;2023-02-26T11:46:11;4.60;;;0.80;;
59756;SDS011;45631;51.962;5.974;2023-02-26T11:48:41;4.13;;;1.00;;
59756;SDS011;45631;51.962;5.974;2023-02-26T11:51:13;2.33;;;0.88;;
59756;SDS011;45631;51.962;5.974;2023-02-26T11:53:47;3.63;;;0.73;;
59756;SDS011;45631;51.962;5.974;2023-02-26T11:56:24;2.53;;;0.77;;
59756;SDS011;45631;51.962;5.974;2023-02-26T11:58:57;2.65;;;0.90;;
59756;SDS011;45631;51.962;5.974;2023-02-26T12:01:34;3.67;;;0.82;;
59756;SDS011;45631;51.962;5.974;2023-02-26T12:04:03;3.65;;;0.90;;
59756;SDS011;45631;51.962;5.974;2023-02-26T12:06:32;2.30;;;0.90;;
59756;SDS011;45631;51.962;5.974;2023-02-26T12:09:01;3.08;;;0.98;;
59756;SDS011;45631;51.962;5.974;2023-02-26T12:11:40;4.25;;;1.05;;
59756;SDS011;45631;51.962;5.974;2023-02-26T12:14:22;2.17;;;0.70;;
59756;SDS011;45631;51.962;5.974;2023-02-26T12:17:12;2.92;;;0.80;;
59756;SDS011;45631;51.962;5.974;2023-02-26T12:19:59;2.72;;;0.70;;
59756;SDS011;45631;51.962;5.974;2023-02-26T12:22:45;2.17;;;0.70;;
59756;SDS011;45631;51.962;5.974;2023-02-26T12:25:22;3.08;;;0.82;;
59756;SDS011;45631;51.962;5.974;2023-02-26T12:28:20;2.90;;;1.08;;
59756;SDS011;45631;51.962;5.974;2023-02-26T12:31:05;3.58;;;0.77;;
59756;SDS011;45631;51.962;5.974;2023-02-26T12:33:48;1.83;;;0.70;;
59756;SDS011;45631;51.962;5.974;2023-02-26T12:36:28;3.13;;;0.70;;
59756;SDS011;45631;51.962;5.974;2023-02-26T12:39:19;3.70;;;0.75;;
59756;SDS011;45631;51.962;5.974;2023-02-26T12:42:02;3.22;;;0.80;;
59756;SDS011;45631;51.962;5.974;2023-02-26T12:44:44;3.58;;;0.70;;
59756;SDS011;45631;51.962;5.974;2023-02-26T12:47:34;3.38;;;0.63;;
59756;SDS011;45631;51.962;5.974;2023-02-26T12:50:22;4.28;;;0.88;;
59756;SDS011;45631;51.962;5.974;2023-02-26T12:55:58;3.50;;;0.95;;
59756;SDS011;45631;51.962;5.974;2023-02-26T12:58:43;2.75;;;0.75;;
59756;SDS011;45631;51.962;5.974;2023-02-26T13:04:38;3.85;;;0.80;;
59756;SDS011;45631;51.962;5.974;2023-02-26T13:07:32;3.47;;;0.98;;
59756;SDS011;45631;51.962;5.974;2023-02-26T13:10:17;1.83;;;0.60;;
59756;SDS011;45631;51.962;5.974;2023-02-26T13:12:57;2.22;;;0.95;;
59756;SDS011;45631;51.962;5.974;2023-02-26T13:15:54;1.80;;;1.00;;
59756;SDS011;45631;51.962;5.974;2023-02-26T13:18:38;3.28;;;0.90;;
59756;SDS011;45631;51.962;5.974;2023-02-26T13:21:15;1.48;;;0.70;;
59756;SDS011;45631;51.962;5.974;2023-02-26T13:26:16;3.13;;;0.95;;
59756;SDS011;45631;51.962;5.974;2023-02-26T13:28:49;3.60;;;0.82;;
59756;SDS011;45631;51.962;5.974;2023-02-26T13:31:22;4.57;;;1.10;;
59756;SDS011;45631;51.962;5.974;2023-02-26T13:33:56;1.33;;;0.60;;
59756;SDS011;45631;51.962;5.974;2023-02-26T13:36:27;1.75;;;0.77;;
59756;SDS011;45631;51.962;5.974;2023-02-26T13:39:02;2.72;;;0.70;;
59756;SDS011;45631;51.962;5.974;2023-02-26T13:41:48;4.63;;;0.80;;
59756;SDS011;45631;51.962;5.974;2023-02-26T13:44:26;3.03;;;0.93;;
59756;SDS011;45631;51.962;5.974;2023-02-26T13:47:27;4.30;;;0.98;;
59756;SDS011;45631;51.962;5.974;2023-02-26T13:50:15;1.58;;;0.70;;
59756;SDS011;45631;51.962;5.974;2023-02-26T13:52:52;3.53;;;0.80;;
59756;SDS011;45631;51.962;5.974;2023-02-26T13:55:36;3.97;;;0.82;;
59756;SDS011;45631;51.962;5.974;2023-02-26T13:58:15;3.58;;;0.95;;
59756;SDS011;45631;51.962;5.974;2023-02-26T14:00:47;3.70;;;0.70;;
59756;SDS011;45631;51.962;5.974;2023-02-26T14:03:29;2.60;;;1.05;;
59756;SDS011;45631;51.962;5.974;2023-02-26T14:08:51;0.95;;;0.55;;
59756;SDS011;45631;51.962;5.974;2023-02-26T14:14:29;1.48;;;0.70;;
59756;SDS011;45631;51.962;5.974;2023-02-26T14:22:52;3.38;;;0.77;;
59756;SDS011;45631;51.962;5.974;2023-02-26T14:25:38;2.13;;;0.77;;
59756;SDS011;45631;51.962;5.974;2023-02-26T14:28:31;4.32;;;1.20;;
59756;SDS011;45631;51.962;5.974;2023-02-26T14:31:17;1.88;;;0.70;;
59756;SDS011;45631;51.962;5.974;2023-02-26T14:33:57;2.95;;;0.75;;
59756;SDS011;45631;51.962;5.974;2023-02-26T14:36:35;1.92;;;0.60;;
59756;SDS011;45631;51.962;5.974;2023-02-26T14:39:11;2.25;;;0.75;;
59756;SDS011;45631;51.962;5.974;2023-02-26T14:41:49;2.33;;;0.95;;
59756;SDS011;45631;51.962;5.974;2023-02-26T14:44:24;2.28;;;0.70;;
59756;SDS011;45631;51.962;5.974;2023-02-26T14:46:55;1.27;;;0.60;;
59756;SDS011;45631;51.962;5.974;2023-02-26T14:49:26;2.95;;;0.82;;
59756;SDS011;45631;51.962;5.974;2023-02-26T14:52:02;2.17;;;0.77;;
59756;SDS011;45631;51.962;5.974;2023-02-26T14:54:54;2.55;;;1.08;;
59756;SDS011;45631;51.962;5.974;2023-02-26T14:57:36;2.63;;;0.65;;
59756;SDS011;45631;51.962;5.974;2023-02-26T15:00:18;1.40;;;0.70;;
59756;SDS011;45631;51.962;5.974;2023-02-26T15:05:54;2.60;;;0.70;;
59756;SDS011;45631;51.962;5.974;2023-02-26T15:08:40;4.20;;;0.73;;
59756;SDS011;45631;51.962;5.974;2023-02-26T15:11:24;2.30;;;0.60;;
59756;SDS011;45631;51.962;5.974;2023-02-26T15:14:21;1.73;;;0.63;;
59756;SDS011;45631;51.962;5.974;2023-02-26T15:17:07;2.00;;;0.70;;
59756;SDS011;45631;51.962;5.974;2023-02-26T15:19:50;1.45;;;0.68;;
59756;SDS011;45631;51.962;5.974;2023-02-26T15:22:28;2.85;;;0.80;;
59756;SDS011;45631;51.962;5.974;2023-02-26T15:25:10;2.35;;;0.60;;
59756;SDS011;45631;51.962;5.974;2023-02-26T15:27:46;2.17;;;0.60;;
59756;SDS011;45631;51.962;5.974;2023-02-26T15:30:14;1.80;;;1.10;;
59756;SDS011;45631;51.962;5.974;2023-02-26T15:32:44;3.80;;;0.90;;
59756;SDS011;45631;51.962;5.974;2023-02-26T15:35:14;2.17;;;0.60;;
59756;SDS011;45631;51.962;5.974;2023-02-26T15:37:46;1.35;;;0.45;;
59756;SDS011;45631;51.962;5.974;2023-02-26T15:40:18;2.13;;;0.68;;
59756;SDS011;45631;51.962;5.974;2023-02-26T15:42:50;2.42;;;0.50;;
59756;SDS011;45631;51.962;5.974;2023-02-26T15:45:22;2.15;;;0.70;;
59756;SDS011;45631;51.962;5.974;2023-02-26T15:47:54;3.35;;;0.70;;
59756;SDS011;45631;51.962;5.974;2023-02-26T15:50:25;1.10;;;0.45;;
59756;SDS011;45631;51.962;5.974;2023-02-26T15:52:58;3.17;;;0.55;;
59756;SDS011;45631;51.962;5.974;2023-02-26T15:55:30;2.35;;;0.65;;